Lanxi, China
Current Conditions -  °F | °C
As of 2:00 PM on Sunday 21 Dec 2014 (Local Time) from ZSHC Reporting Station
Clear Clear  
Wind Chill: 36°   Ceiling: Unl
Heat Index: 43°   Visibility: 6mi
Dew Point:   Wind: 13mph
Humidity: 25%   Direction: 320°NW
Pressure: 30.45"   Gusts: NA
Location:  29.22°N, 119.46°E
Report Text: ZSHC 210600Z 32006MPS 290V360 CAVOK 06/M13 Q1031 NOSIG
Loading
Personal Weather Stations






























Interactive Weather Map New forecast layout! Learn more

10-Day Weather Forecast

Advertisements
Track Severe Weather on mobile